sensor_id;sensor_type;location;lat;lon;timestamp;pressure;altitude;pressure_sealevel;temperature;humidity
48778;BME280;34578;0.000;0.000;2023-06-01T00:01:27;96749.28;;;18.44;56.17
48778;BME280;34578;0.000;0.000;2023-06-01T00:06:33;96737.47;;;18.37;56.09
48778;BME280;34578;0.000;0.000;2023-06-01T00:11:34;96746.78;;;18.41;56.29
48778;BME280;34578;0.000;0.000;2023-06-01T00:16:34;96733.22;;;18.39;56.31
48778;BME280;34578;0.000;0.000;2023-06-01T00:21:36;96734.94;;;18.44;56.35
48778;BME280;34578;0.000;0.000;2023-06-01T00:26:36;96739.16;;;18.74;56.22
48778;BME280;34578;0.000;0.000;2023-06-01T00:31:37;96727.31;;;18.80;55.53
48778;BME280;34578;0.000;0.000;2023-06-01T00:36:37;96733.22;;;18.67;56.28
48778;BME280;34578;0.000;0.000;2023-06-01T00:41:38;96723.94;;;18.56;56.01
48778;BME280;34578;0.000;0.000;2023-06-01T00:46:38;96718.03;;;18.45;55.96
48778;BME280;34578;0.000;0.000;2023-06-01T00:51:39;96719.75;;;18.40;56.09
48778;BME280;34578;0.000;0.000;2023-06-01T00:56:41;96725.66;;;18.42;56.12
48778;BME280;34578;0.000;0.000;2023-06-01T01:01:41;96720.56;;;18.39;56.24
48778;BME280;34578;0.000;0.000;2023-06-01T01:07:09;96709.56;;;18.37;56.00
48778;BME280;34578;0.000;0.000;2023-06-01T01:12:17;96713.78;;;18.38;56.15
48778;BME280;34578;0.000;0.000;2023-06-01T01:17:31;96716.34;;;18.36;55.85
48778;BME280;34578;0.000;0.000;2023-06-01T01:33:09;96718.84;;;18.80;55.46
48778;BME280;34578;0.000;0.000;2023-06-01T01:38:11;96709.59;;;18.62;55.98
48778;BME280;34578;0.000;0.000;2023-06-01T01:43:11;96717.16;;;18.55;55.87
48778;BME280;34578;0.000;0.000;2023-06-01T01:48:40;96721.41;;;18.48;55.62
48778;BME280;34578;0.000;0.000;2023-06-01T01:53:44;96723.09;;;18.43;56.02
48778;BME280;34578;0.000;0.000;2023-06-01T01:58:45;96707.91;;;18.37;55.91
48778;BME280;34578;0.000;0.000;2023-06-01T02:03:57;96713.81;;;18.35;55.81
48778;BME280;34578;0.000;0.000;2023-06-01T02:08:58;96717.19;;;18.38;55.74
48778;BME280;34578;0.000;0.000;2023-06-01T02:13:58;96720.56;;;18.39;55.91
48778;BME280;34578;0.000;0.000;2023-06-01T02:18:58;96707.03;;;18.37;55.90
48778;BME280;34578;0.000;0.000;2023-06-01T02:23:59;96702.81;;;18.48;56.07
48778;BME280;34578;0.000;0.000;2023-06-01T02:29:05;96701.13;;;18.69;55.35
48778;BME280;34578;0.000;0.000;2023-06-01T02:34:05;96695.19;;;18.73;55.37
48778;BME280;34578;0.000;0.000;2023-06-01T02:39:05;96711.25;;;18.60;55.85
48778;BME280;34578;0.000;0.000;2023-06-01T02:44:07;96710.44;;;18.51;55.50
48778;BME280;34578;0.000;0.000;2023-06-01T02:49:08;96705.38;;;18.46;55.58
48778;BME280;34578;0.000;0.000;2023-06-01T02:54:08;96701.16;;;18.41;55.88
48778;BME280;34578;0.000;0.000;2023-06-01T02:59:09;96701.13;;;18.39;55.50
48778;BME280;34578;0.000;0.000;2023-06-01T03:04:14;96698.59;;;18.38;55.66
48778;BME280;34578;0.000;0.000;2023-06-01T03:09:16;96704.50;;;18.34;55.89
48778;BME280;34578;0.000;0.000;2023-06-01T03:14:25;96701.97;;;18.37;55.82
48778;BME280;34578;0.000;0.000;2023-06-01T03:19:25;96700.28;;;18.36;55.65
48778;BME280;34578;0.000;0.000;2023-06-01T03:24:31;96701.13;;;18.48;55.85
48778;BME280;34578;0.000;0.000;2023-06-01T03:29:35;96701.13;;;18.72;55.44
48778;BME280;34578;0.000;0.000;2023-06-01T03:34:36;96706.19;;;18.78;54.82
48778;BME280;34578;0.000;0.000;2023-06-01T03:39:37;96712.97;;;18.60;55.64
48778;BME280;34578;0.000;0.000;2023-06-01T03:44:41;96714.66;;;18.47;55.20
48778;BME280;34578;0.000;0.000;2023-06-01T03:49:42;96717.19;;;18.46;55.47
48778;BME280;34578;0.000;0.000;2023-06-01T03:54:45;96713.81;;;18.41;55.51
48778;BME280;34578;0.000;0.000;2023-06-01T04:00:02;96711.28;;;18.39;55.53
48778;BME280;34578;0.000;0.000;2023-06-01T04:05:25;96724.81;;;18.40;55.40
48778;BME280;34578;0.000;0.000;2023-06-01T04:10:26;96716.31;;;18.38;55.42
48778;BME280;34578;0.000;0.000;2023-06-01T04:15:26;96722.25;;;18.37;55.69
48778;BME280;34578;0.000;0.000;2023-06-01T04:20:27;96717.19;;;18.34;55.40
48778;BME280;34578;0.000;0.000;2023-06-01T04:25:28;96714.66;;;18.44;55.52
48778;BME280;34578;0.000;0.000;2023-06-01T04:30:28;96718.88;;;18.68;55.45
48778;BME280;34578;0.000;0.000;2023-06-01T04:35:29;96725.63;;;18.78;54.91
48778;BME280;34578;0.000;0.000;2023-06-01T04:40:30;96726.47;;;18.60;55.79
48778;BME280;34578;0.000;0.000;2023-06-01T04:45:30;96724.78;;;18.50;55.36
48778;BME280;34578;0.000;0.000;2023-06-01T04:50:31;96727.31;;;18.46;55.15
48778;BME280;34578;0.000;0.000;2023-06-01T04:55:33;96729.03;;;18.41;55.20
48778;BME280;34578;0.000;0.000;2023-06-01T05:00:33;96731.56;;;18.39;55.31
48778;BME280;34578;0.000;0.000;2023-06-01T05:05:33;96729.88;;;18.38;55.47
48778;BME280;34578;0.000;0.000;2023-06-01T05:10:34;96741.69;;;18.39;55.51
48778;BME280;34578;0.000;0.000;2023-06-01T05:15:34;96735.75;;;18.39;55.42
48778;BME280;34578;0.000;0.000;2023-06-01T05:20:35;96738.31;;;18.36;55.55
48778;BME280;34578;0.000;0.000;2023-06-01T05:25:35;96736.59;;;18.38;55.39
48778;BME280;34578;0.000;0.000;2023-06-01T05:30:36;96745.91;;;18.69;55.46
48778;BME280;34578;0.000;0.000;2023-06-01T05:35:37;96734.06;;;18.77;54.73
48778;BME280;34578;0.000;0.000;2023-06-01T05:40:39;96737.47;;;18.59;55.26
48778;BME280;34578;0.000;0.000;2023-06-01T05:45:40;96737.47;;;18.55;55.37
48778;BME280;34578;0.000;0.000;2023-06-01T05:50:41;96742.56;;;18.49;55.13
48778;BME280;34578;0.000;0.000;2023-06-01T05:55:42;96733.22;;;18.43;55.10
48778;BME280;34578;0.000;0.000;2023-06-01T06:00:43;96734.91;;;18.37;55.17
48778;BME280;34578;0.000;0.000;2023-06-01T06:05:43;96739.16;;;18.39;55.43
48778;BME280;34578;0.000;0.000;2023-06-01T06:10:45;96744.22;;;18.38;55.50
48778;BME280;34578;0.000;0.000;2023-06-01T06:15:45;96744.22;;;18.38;55.52
48778;BME280;34578;0.000;0.000;2023-06-01T06:20:46;96739.13;;;18.38;55.32
48778;BME280;34578;0.000;0.000;2023-06-01T06:25:47;96734.94;;;18.38;55.34
48778;BME280;34578;0.000;0.000;2023-06-01T06:30:48;96733.22;;;18.67;55.83
48778;BME280;34578;0.000;0.000;2023-06-01T06:35:49;96736.63;;;18.83;54.84
48778;BME280;34578;0.000;0.000;2023-06-01T06:40:49;96738.31;;;18.69;55.47
48778;BME280;34578;0.000;0.000;2023-06-01T06:45:50;96745.06;;;18.56;55.45
48778;BME280;34578;0.000;0.000;2023-06-01T06:50:51;96739.16;;;18.50;55.37
48778;BME280;34578;0.000;0.000;2023-06-01T06:55:51;96740.00;;;18.46;55.44
48778;BME280;34578;0.000;0.000;2023-06-01T07:00:51;96732.41;;;18.40;55.36
48778;BME280;34578;0.000;0.000;2023-06-01T07:05:52;96742.53;;;18.46;55.52
48778;BME280;34578;0.000;0.000;2023-06-01T07:10:53;96730.69;;;18.39;55.47
48778;BME280;34578;0.000;0.000;2023-06-01T07:15:54;96741.69;;;18.41;55.60
48778;BME280;34578;0.000;0.000;2023-06-01T07:20:54;96735.78;;;18.45;55.54
48778;BME280;34578;0.000;0.000;2023-06-01T07:25:55;96740.84;;;18.42;55.49
48778;BME280;34578;0.000;0.000;2023-06-01T07:30:56;96739.16;;;18.68;56.22
48778;BME280;34578;0.000;0.000;2023-06-01T07:35:56;96744.22;;;18.86;55.85
48778;BME280;34578;0.000;0.000;2023-06-01T07:40:58;96736.59;;;18.80;55.93
48778;BME280;34578;0.000;0.000;2023-06-01T07:45:59;96738.31;;;18.70;55.87
48778;BME280;34578;0.000;0.000;2023-06-01T07:50:59;96734.91;;;18.64;56.33
48778;BME280;34578;0.000;0.000;2023-06-01T07:56:00;96742.53;;;18.64;56.02
48778;BME280;34578;0.000;0.000;2023-06-01T08:01:00;96732.38;;;18.64;55.86
48778;BME280;34578;0.000;0.000;2023-06-01T08:06:01;96727.31;;;18.64;56.07
48778;BME280;34578;0.000;0.000;2023-06-01T08:11:05;96730.72;;;18.60;56.03
48778;BME280;34578;0.000;0.000;2023-06-01T08:16:05;96729.00;;;18.62;55.86
48778;BME280;34578;0.000;0.000;2023-06-01T08:21:05;96729.00;;;18.63;55.98
48778;BME280;34578;0.000;0.000;2023-06-01T08:26:09;96729.00;;;18.63;56.34
48778;BME280;34578;0.000;0.000;2023-06-01T08:31:09;96721.38;;;18.80;56.70
48778;BME280;34578;0.000;0.000;2023-06-01T08:36:10;96723.06;;;18.94;56.75
48778;BME280;34578;0.000;0.000;2023-06-01T08:41:36;96710.41;;;18.84;56.69
48778;BME280;34578;0.000;0.000;2023-06-01T08:46:41;96718.03;;;18.75;56.86
48778;BME280;34578;0.000;0.000;2023-06-01T08:51:42;96717.19;;;18.71;56.79
48778;BME280;34578;0.000;0.000;2023-06-01T08:56:43;96721.41;;;18.69;56.73
48778;BME280;34578;0.000;0.000;2023-06-01T09:01:43;96724.78;;;18.68;56.61
48778;BME280;34578;0.000;0.000;2023-06-01T09:06:45;96714.66;;;18.67;56.57
48778;BME280;34578;0.000;0.000;2023-06-01T09:11:46;96722.25;;;18.67;56.70
48778;BME280;34578;0.000;0.000;2023-06-01T09:16:47;96727.31;;;18.67;56.65
48778;BME280;34578;0.000;0.000;2023-06-01T09:21:56;96719.72;;;18.67;56.72
48778;BME280;34578;0.000;0.000;2023-06-01T09:27:01;96718.88;;;18.68;56.78
48778;BME280;34578;0.000;0.000;2023-06-01T09:32:02;96705.31;;;18.81;57.46
48778;BME280;34578;0.000;0.000;2023-06-01T09:37:05;96717.97;;;19.02;57.13
48778;BME280;34578;0.000;0.000;2023-06-01T09:42:07;96708.69;;;18.89;57.36
48778;BME280;34578;0.000;0.000;2023-06-01T09:47:11;96707.88;;;18.79;57.28
48778;BME280;34578;0.000;0.000;2023-06-01T09:52:15;96705.34;;;18.75;57.17
48778;BME280;34578;0.000;0.000;2023-06-01T09:57:22;96701.94;;;18.73;57.06
48778;BME280;34578;0.000;0.000;2023-06-01T10:02:24;96691.81;;;18.71;56.98
48778;BME280;34578;0.000;0.000;2023-06-01T10:07:30;96690.97;;;18.71;57.18
48778;BME280;34578;0.000;0.000;2023-06-01T10:12:31;96696.03;;;18.71;57.02
48778;BME280;34578;0.000;0.000;2023-06-01T10:17:33;96681.66;;;18.70;57.18
48778;BME280;34578;0.000;0.000;2023-06-01T10:22:34;96685.03;;;18.72;57.09
48778;BME280;34578;0.000;0.000;2023-06-01T10:27:39;96679.13;;;18.71;57.43
48778;BME280;34578;0.000;0.000;2023-06-01T10:32:43;96680.81;;;18.87;57.80
48778;BME280;34578;0.000;0.000;2023-06-01T10:43:07;96681.63;;;18.91;57.68
48778;BME280;34578;0.000;0.000;2023-06-01T10:48:12;96669.81;;;18.78;57.50
48778;BME280;34578;0.000;0.000;2023-06-01T10:53:29;96667.28;;;18.78;57.83
48778;BME280;34578;0.000;0.000;2023-06-01T10:58:30;96668.13;;;18.77;57.58
48778;BME280;34578;0.000;0.000;2023-06-01T11:03:57;96664.75;;;18.75;57.54
48778;BME280;34578;0.000;0.000;2023-06-01T11:09:00;96659.69;;;18.75;57.67
48778;BME280;34578;0.000;0.000;2023-06-01T11:14:09;96647.00;;;18.72;57.40
48778;BME280;34578;0.000;0.000;2023-06-01T11:19:17;96649.53;;;18.75;57.55
48778;BME280;34578;0.000;0.000;2023-06-01T11:24:18;96645.31;;;18.72;57.62
48778;BME280;34578;0.000;0.000;2023-06-01T11:29:21;96637.69;;;18.77;60.80
48778;BME280;34578;0.000;0.000;2023-06-01T11:34:35;96644.41;;;18.99;58.27
48778;BME280;34578;0.000;0.000;2023-06-01T11:39:41;96630.00;;;19.02;57.74
48778;BME280;34578;0.000;0.000;2023-06-01T11:44:44;96630.03;;;18.89;58.03
48778;BME280;34578;0.000;0.000;2023-06-01T11:49:46;96619.06;;;18.81;57.95
48778;BME280;34578;0.000;0.000;2023-06-01T11:54:49;96613.16;;;18.77;58.39
48778;BME280;34578;0.000;0.000;2023-06-01T11:59:51;96620.78;;;18.79;57.95
48778;BME280;34578;0.000;0.000;2023-06-01T12:05:02;96616.56;;;18.76;57.73
48778;BME280;34578;0.000;0.000;2023-06-01T12:10:07;96607.28;;;18.78;57.97
48778;BME280;34578;0.000;0.000;2023-06-01T12:15:11;96601.34;;;18.78;58.04
48778;BME280;34578;0.000;0.000;2023-06-01T12:20:11;96598.81;;;18.78;58.03
48778;BME280;34578;0.000;0.000;2023-06-01T12:25:12;96598.81;;;18.78;57.97
48778;BME280;34578;0.000;0.000;2023-06-01T12:30:22;96590.31;;;18.88;59.62
48778;BME280;34578;0.000;0.000;2023-06-01T12:35:23;96588.56;;;19.03;58.20
48778;BME280;34578;0.000;0.000;2023-06-01T12:40:23;96581.78;;;19.02;57.81
48778;BME280;34578;0.000;0.000;2023-06-01T12:45:24;96583.53;;;18.90;58.29
48778;BME280;34578;0.000;0.000;2023-06-01T12:50:24;96581.00;;;18.85;58.38
48778;BME280;34578;0.000;0.000;2023-06-01T12:55:24;96575.13;;;18.82;58.43
48778;BME280;34578;0.000;0.000;2023-06-01T13:00:25;96571.72;;;18.80;58.00
48778;BME280;34578;0.000;0.000;2023-06-01T13:05:25;96565.84;;;18.75;58.29
48778;BME280;34578;0.000;0.000;2023-06-01T13:10:26;96564.13;;;18.80;57.89
48778;BME280;34578;0.000;0.000;2023-06-01T13:15:27;96559.06;;;18.77;58.03
48778;BME280;34578;0.000;0.000;2023-06-01T13:20:27;96565.84;;;18.79;58.02
48778;BME280;34578;0.000;0.000;2023-06-01T13:25:27;96559.91;;;18.79;58.07
48778;BME280;34578;0.000;0.000;2023-06-01T13:30:28;96551.41;;;18.89;59.35
48778;BME280;34578;0.000;0.000;2023-06-01T13:35:29;96542.03;;;19.06;58.14
48778;BME280;34578;0.000;0.000;2023-06-01T13:40:29;96547.09;;;19.06;58.17
48778;BME280;34578;0.000;0.000;2023-06-01T13:45:31;96529.44;;;18.91;58.56
48778;BME280;34578;0.000;0.000;2023-06-01T13:50:31;96526.06;;;18.86;58.70
48778;BME280;34578;0.000;0.000;2023-06-01T13:55:31;96521.00;;;18.84;58.58
48778;BME280;34578;0.000;0.000;2023-06-01T14:00:32;96516.78;;;18.79;58.74
48778;BME280;34578;0.000;0.000;2023-06-01T14:05:33;96507.50;;;18.78;58.26
48778;BME280;34578;0.000;0.000;2023-06-01T14:10:33;96510.03;;;18.78;58.45
48778;BME280;34578;0.000;0.000;2023-06-01T14:15:34;96507.47;;;18.81;58.50
48778;BME280;34578;0.000;0.000;2023-06-01T14:20:35;96504.13;;;18.82;58.30
48778;BME280;34578;0.000;0.000;2023-06-01T14:25:37;96501.56;;;18.80;58.39
48778;BME280;34578;0.000;0.000;2023-06-01T14:30:38;96493.88;;;18.94;58.86
48778;BME280;34578;0.000;0.000;2023-06-01T14:35:42;96496.34;;;19.09;59.00
48778;BME280;34578;0.000;0.000;2023-06-01T14:40:42;96495.53;;;19.04;58.61
48778;BME280;34578;0.000;0.000;2023-06-01T14:45:42;96493.88;;;18.94;58.75
48778;BME280;34578;0.000;0.000;2023-06-01T14:50:43;96480.41;;;18.86;58.66
48778;BME280;34578;0.000;0.000;2023-06-01T14:55:43;96474.47;;;18.85;58.64
48778;BME280;34578;0.000;0.000;2023-06-01T15:00:44;96480.44;;;18.83;58.71
48778;BME280;34578;0.000;0.000;2023-06-01T15:05:44;96474.50;;;18.82;58.48
48778;BME280;34578;0.000;0.000;2023-06-01T15:10:44;96470.28;;;18.83;58.72
48778;BME280;34578;0.000;0.000;2023-06-01T15:15:45;96470.28;;;18.81;58.48
48778;BME280;34578;0.000;0.000;2023-06-01T15:20:45;96466.06;;;18.82;58.39
48778;BME280;34578;0.000;0.000;2023-06-01T15:25:46;96465.22;;;18.83;58.26
48778;BME280;34578;0.000;0.000;2023-06-01T15:30:46;96466.81;;;18.96;58.99
48778;BME280;34578;0.000;0.000;2023-06-01T15:35:47;96465.88;;;19.12;58.68
48778;BME280;34578;0.000;0.000;2023-06-01T15:40:47;96464.25;;;19.03;58.74
48778;BME280;34578;0.000;0.000;2023-06-01T15:45:48;96446.56;;;18.93;58.94
48778;BME280;34578;0.000;0.000;2023-06-01T15:50:48;96441.50;;;18.87;58.92
48778;BME280;34578;0.000;0.000;2023-06-01T15:55:48;96444.03;;;18.87;58.69
48778;BME280;34578;0.000;0.000;2023-06-01T16:00:49;96433.94;;;18.79;58.50
48778;BME280;34578;0.000;0.000;2023-06-01T16:05:50;96442.34;;;18.86;58.81
48778;BME280;34578;0.000;0.000;2023-06-01T16:10:51;96439.00;;;18.84;58.69
48778;BME280;34578;0.000;0.000;2023-06-01T16:15:51;96433.91;;;18.81;58.39
48778;BME280;34578;0.000;0.000;2023-06-01T16:20:51;96429.72;;;18.83;58.32
48778;BME280;34578;0.000;0.000;2023-06-01T16:25:52;96421.25;;;18.81;58.50
48778;BME280;34578;0.000;0.000;2023-06-01T16:30:52;96418.59;;;19.00;59.00
48778;BME280;34578;0.000;0.000;2023-06-01T16:35:52;96426.09;;;19.15;58.51
48778;BME280;34578;0.000;0.000;2023-06-01T16:40:53;96422.78;;;19.03;58.97
48778;BME280;34578;0.000;0.000;2023-06-01T16:45:53;96414.41;;;18.95;58.92
48778;BME280;34578;0.000;0.000;2023-06-01T16:50:53;96422.03;;;18.90;58.93
48778;BME280;34578;0.000;0.000;2023-06-01T16:55:55;96412.78;;;18.85;59.13
48778;BME280;34578;0.000;0.000;2023-06-01T17:00:56;96418.69;;;18.87;58.63
48778;BME280;34578;0.000;0.000;2023-06-01T17:05:56;96421.22;;;18.85;58.72
48778;BME280;34578;0.000;0.000;2023-06-01T17:10:57;96410.28;;;18.82;58.54
48778;BME280;34578;0.000;0.000;2023-06-01T17:15:57;96415.31;;;18.85;58.50
48778;BME280;34578;0.000;0.000;2023-06-01T17:20:58;96419.56;;;18.83;58.39
48778;BME280;34578;0.000;0.000;2023-06-01T17:25:58;96414.47;;;18.80;59.12
48778;BME280;34578;0.000;0.000;2023-06-01T17:30:58;96419.41;;;19.04;59.44
48778;BME280;34578;0.000;0.000;2023-06-01T17:35:59;96421.00;;;19.14;58.34
48778;BME280;34578;0.000;0.000;2023-06-01T17:40:59;96421.97;;;18.99;59.10
48778;BME280;34578;0.000;0.000;2023-06-01T17:46:00;96415.25;;;18.92;59.16
48778;BME280;34578;0.000;0.000;2023-06-01T17:51:00;96415.28;;;18.89;58.88
48778;BME280;34578;0.000;0.000;2023-06-01T17:56:01;96411.91;;;18.87;58.71
48778;BME280;34578;0.000;0.000;2023-06-01T18:01:01;96409.41;;;18.83;58.71
48778;BME280;34578;0.000;0.000;2023-06-01T18:06:02;96423.75;;;18.85;58.48
48778;BME280;34578;0.000;0.000;2023-06-01T18:11:02;96428.00;;;18.85;58.50
48778;BME280;34578;0.000;0.000;2023-06-01T18:16:06;96413.63;;;18.82;58.33
48778;BME280;34578;0.000;0.000;2023-06-01T18:21:07;96430.53;;;18.85;58.20
48778;BME280;34578;0.000;0.000;2023-06-01T18:26:07;96427.94;;;18.94;59.72
48778;BME280;34578;0.000;0.000;2023-06-01T18:31:10;96427.81;;;19.12;58.89
48778;BME280;34578;0.000;0.000;2023-06-01T18:36:11;96426.09;;;19.14;58.24
48778;BME280;34578;0.000;0.000;2023-06-01T18:41:11;96429.59;;;19.01;59.01
48778;BME280;34578;0.000;0.000;2023-06-01T18:46:12;96436.41;;;18.93;58.95
48778;BME280;34578;0.000;0.000;2023-06-01T18:51:15;96439.78;;;18.89;58.79
48778;BME280;34578;0.000;0.000;2023-06-01T18:56:18;96441.50;;;18.87;58.64
48778;BME280;34578;0.000;0.000;2023-06-01T19:01:18;96440.69;;;18.86;58.43
48778;BME280;34578;0.000;0.000;2023-06-01T19:06:19;96444.03;;;18.85;58.29
48778;BME280;34578;0.000;0.000;2023-06-01T19:11:19;96446.59;;;18.84;57.97
48778;BME280;34578;0.000;0.000;2023-06-01T19:16:25;96444.94;;;18.83;58.10
48778;BME280;34578;0.000;0.000;2023-06-01T19:21:27;96450.00;;;18.80;58.04
48778;BME280;34578;0.000;0.000;2023-06-01T19:26:31;96454.94;;;18.98;59.26
48778;BME280;34578;0.000;0.000;2023-06-01T19:31:37;96455.69;;;19.15;58.30
48778;BME280;34578;0.000;0.000;2023-06-01T19:41:42;96466.81;;;18.96;58.80
48778;BME280;34578;0.000;0.000;2023-06-01T19:46:42;96472.78;;;18.92;58.63
48778;BME280;34578;0.000;0.000;2023-06-01T19:51:42;96471.09;;;18.88;58.23
48778;BME280;34578;0.000;0.000;2023-06-01T19:56:45;96471.94;;;18.87;58.33
48778;BME280;34578;0.000;0.000;2023-06-01T20:01:48;96474.47;;;18.85;58.07
48778;BME280;34578;0.000;0.000;2023-06-01T20:06:49;96482.94;;;18.84;58.08
48778;BME280;34578;0.000;0.000;2023-06-01T20:11:52;96480.44;;;18.83;58.08
48778;BME280;34578;0.000;0.000;2023-06-01T20:16:53;96485.50;;;18.83;57.90
48778;BME280;34578;0.000;0.000;2023-06-01T20:21:56;96490.59;;;18.83;58.18
48778;BME280;34578;0.000;0.000;2023-06-01T20:26:59;96492.97;;;19.02;58.83
48778;BME280;34578;0.000;0.000;2023-06-01T20:32:01;96489.53;;;19.17;58.11
48778;BME280;34578;0.000;0.000;2023-06-01T20:37:04;96487.91;;;19.04;58.58
48778;BME280;34578;0.000;0.000;2023-06-01T20:42:05;96488.81;;;18.94;58.52
48778;BME280;34578;0.000;0.000;2023-06-01T20:47:07;96495.59;;;18.90;58.63
48778;BME280;34578;0.000;0.000;2023-06-01T20:52:08;96493.91;;;18.88;58.42
48778;BME280;34578;0.000;0.000;2023-06-01T20:57:08;96487.16;;;18.87;58.36
48778;BME280;34578;0.000;0.000;2023-06-01T21:02:09;96499.00;;;18.85;58.08
48778;BME280;34578;0.000;0.000;2023-06-01T21:07:09;96500.69;;;18.84;58.08
48778;BME280;34578;0.000;0.000;2023-06-01T21:12:10;96504.09;;;18.83;57.76
48778;BME280;34578;0.000;0.000;2023-06-01T21:17:10;96495.66;;;18.80;58.13
48778;BME280;34578;0.000;0.000;2023-06-01T21:22:10;96501.56;;;18.86;60.01
48778;BME280;34578;0.000;0.000;2023-06-01T21:27:11;96496.34;;;19.06;58.96
48778;BME280;34578;0.000;0.000;2023-06-01T21:32:11;96499.66;;;19.18;58.11
48778;BME280;34578;0.000;0.000;2023-06-01T21:37:12;96501.44;;;19.03;58.63
48778;BME280;34578;0.000;0.000;2023-06-01T21:42:12;96499.81;;;18.94;58.68
48778;BME280;34578;0.000;0.000;2023-06-01T21:47:13;96491.38;;;18.89;58.40
48778;BME280;34578;0.000;0.000;2023-06-01T21:52:15;96484.63;;;18.87;58.29
48778;BME280;34578;0.000;0.000;2023-06-01T21:57:16;96488.88;;;18.86;58.08
48778;BME280;34578;0.000;0.000;2023-06-01T22:02:16;96490.56;;;18.84;58.02
48778;BME280;34578;0.000;0.000;2023-06-01T22:07:16;96492.25;;;18.84;57.88
48778;BME280;34578;0.000;0.000;2023-06-01T22:12:17;96488.00;;;18.84;57.90
48778;BME280;34578;0.000;0.000;2023-06-01T22:17:17;96494.78;;;18.84;57.83
48778;BME280;34578;0.000;0.000;2023-06-01T22:22:18;96494.78;;;18.88;60.08
48778;BME280;34578;0.000;0.000;2023-06-01T22:27:19;96498.03;;;19.11;58.88
48778;BME280;34578;0.000;0.000;2023-06-01T22:32:19;96497.16;;;19.17;57.94
48778;BME280;34578;0.000;0.000;2023-06-01T22:37:20;96493.84;;;19.01;58.60
48778;BME280;34578;0.000;0.000;2023-06-01T22:42:22;96492.22;;;18.93;58.41
48778;BME280;34578;0.000;0.000;2023-06-01T22:47:22;96487.16;;;18.87;58.31
48778;BME280;34578;0.000;0.000;2023-06-01T22:52:23;96493.91;;;18.88;58.08
48778;BME280;34578;0.000;0.000;2023-06-01T22:57:27;96492.22;;;18.87;57.84
48778;BME280;34578;0.000;0.000;2023-06-01T23:02:27;96488.03;;;18.81;57.75
48778;BME280;34578;0.000;0.000;2023-06-01T23:07:28;96500.69;;;18.86;57.76
48778;BME280;34578;0.000;0.000;2023-06-01T23:12:29;96497.34;;;18.84;57.32
48778;BME280;34578;0.000;0.000;2023-06-01T23:17:29;96502.41;;;18.84;57.79
48778;BME280;34578;0.000;0.000;2023-06-01T23:22:32;96492.19;;;18.96;58.98
48778;BME280;34578;0.000;0.000;2023-06-01T23:27:36;96492.94;;;19.13;58.47
48778;BME280;34578;0.000;0.000;2023-06-01T23:32:36;96490.38;;;19.13;57.95
48778;BME280;34578;0.000;0.000;2023-06-01T23:37:37;96488.78;;;19.00;58.40
48778;BME280;34578;0.000;0.000;2023-06-01T23:42:40;96481.25;;;18.91;58.33
48778;BME280;34578;0.000;0.000;2023-06-01T23:47:40;96493.91;;;18.91;58.17
48778;BME280;34578;0.000;0.000;2023-06-01T23:52:42;96499.84;;;18.88;57.67
48778;BME280;34578;0.000;0.000;2023-06-01T23:57:42;96497.31;;;18.87;57.73
